Time;durP1;ratioP1;P1;durP2;ratioP2;P2;SDS_P1;SDS_P2;PMS_P1;PMS_P2;Temp;Humidity;BMP_temperature;BMP_pressure;BME280_temperature;BME280_humidity;BME280_pressure;Samples;Min_cycle;Max_cycle;Signal;HPM_P1;HPM_P2
2023/05/15 00:01:17;;;;;;;55.47;31.63;;;12.90;99.90;;;;;;5088844;28;20120;-66
2023/05/15 00:03:43;;;;;;;56.53;33.85;;;12.90;99.90;;;;;;5094357;28;20028;-66
2023/05/15 00:06:08;;;;;;;59.92;33.22;;;12.90;99.90;;;;;;5087820;28;20418;-66
2023/05/15 00:08:34;;;;;;;59.55;34.50;;;12.80;99.90;;;;;;5091413;28;20036;-66
2023/05/15 00:10:59;;;;;;;63.80;35.58;;;12.80;99.90;;;;;;5090763;28;20663;-66
2023/05/15 00:13:25;;;;;;;64.07;36.15;;;12.80;99.90;;;;;;5094745;28;20070;-66
2023/05/15 00:15:51;;;;;;;60.85;33.60;;;12.70;99.90;;;;;;5074395;28;20123;-66
2023/05/15 00:18:17;;;;;;;62.53;35.75;;;12.70;99.90;;;;;;5074376;28;20113;-66
2023/05/15 00:20:42;;;;;;;64.68;36.85;;;12.70;99.90;;;;;;5090859;28;20473;-66
2023/05/15 00:23:08;;;;;;;68.60;37.17;;;12.70;99.90;;;;;;5085922;28;20043;-66
2023/05/15 00:25:34;;;;;;;72.32;38.95;;;12.60;99.90;;;;;;5088569;28;20078;-66
2023/05/15 00:28:00;;;;;;;71.60;37.53;;;12.60;99.90;;;;;;5082612;28;20036;-66
2023/05/15 00:30:25;;;;;;;71.53;38.72;;;12.60;99.90;;;;;;5090078;28;20063;-66
2023/05/15 00:32:51;;;;;;;68.30;37.53;;;12.60;99.90;;;;;;5064732;28;20047;-66
2023/05/15 00:35:16;;;;;;;69.65;36.95;;;12.60;99.90;;;;;;5086553;28;20050;-66
2023/05/15 00:37:42;;;;;;;68.57;38.08;;;12.50;99.90;;;;;;5073406;28;20123;-66
2023/05/15 00:40:10;;;;;;;74.35;39.65;;;12.40;99.90;;;;;;5067273;28;20401;-66
2023/05/15 00:42:37;;;;;;;68.70;37.60;;;12.30;99.90;;;;;;5084314;28;20089;-66
2023/05/15 00:45:04;;;;;;;70.68;36.78;;;12.30;99.90;;;;;;5088642;28;20040;-66
2023/05/15 00:47:32;;;;;;;68.57;36.58;;;12.30;99.90;;;;;;5083674;28;20044;-66
2023/05/15 00:49:58;;;;;;;74.13;37.13;;;12.30;99.90;;;;;;5086745;28;20040;-66
2023/05/15 00:52:25;;;;;;;69.15;37.30;;;12.30;99.90;;;;;;5081262;28;20114;-66
2023/05/15 00:54:50;;;;;;;74.70;35.03;;;12.30;99.90;;;;;;5081102;28;20036;-66
2023/05/15 00:57:17;;;;;;;71.38;37.03;;;12.30;99.90;;;;;;5087311;28;20137;-66
2023/05/15 00:59:45;;;;;;;70.38;36.03;;;12.20;99.90;;;;;;5093942;28;20036;-66
2023/05/15 01:02:14;;;;;;;70.97;37.47;;;12.20;99.90;;;;;;5092924;28;20032;-66
2023/05/15 01:04:40;;;;;;;77.10;36.05;;;12.20;99.90;;;;;;5078496;28;20140;-66
2023/05/15 01:07:05;;;;;;;92.97;35.72;;;12.20;99.90;;;;;;5087434;28;20634;-66
2023/05/15 01:09:32;;;;;;;70.32;35.70;;;12.10;99.90;;;;;;5083583;28;20044;-66
2023/05/15 01:11:59;;;;;;;71.85;37.28;;;12.00;99.90;;;;;;5084207;28;20120;-66
2023/05/15 01:14:26;;;;;;;70.63;35.70;;;12.00;99.90;;;;;;5088839;28;20047;-66
2023/05/15 01:16:51;;;;;;;74.43;35.70;;;12.00;99.90;;;;;;5084456;28;20466;-66
2023/05/15 01:19:17;;;;;;;64.10;34.97;;;12.00;99.90;;;;;;5092200;28;20093;-66
2023/05/15 01:22:04;;;;;;;76.82;36.60;;;11.90;99.90;;;;;;5075436;28;20619;-66
2023/05/15 01:24:46;;;;;;;69.68;34.45;;;11.90;99.90;;;;;;5088885;28;20043;-66
2023/05/15 01:27:50;;;;;;;67.63;34.88;;;11.90;99.90;;;;;;5081185;28;20118;-66
2023/05/15 01:30:29;;;;;;;69.88;37.17;;;11.90;99.90;;;;;;5076987;28;20044;-66
2023/05/15 01:33:04;;;;;;;82.70;36.78;;;11.90;99.90;;;;;;5092837;28;20077;-66
2023/05/15 01:36:06;;;;;;;91.28;35.72;;;11.90;99.90;;;;;;5093171;28;20040;-66
2023/05/15 01:38:47;;;;;;;63.65;34.35;;;11.90;99.90;;;;;;5090921;28;20122;-66
2023/05/15 01:41:28;;;;;;;75.68;35.38;;;11.90;99.90;;;;;;5091083;28;20040;-66
2023/05/15 01:44:17;;;;;;;75.65;36.50;;;11.80;99.90;;;;;;5072822;28;20043;-66
2023/05/15 01:46:48;;;;;;;69.35;35.53;;;11.80;99.90;;;;;;5082332;28;20048;-67
2023/05/15 01:49:17;;;;;;;84.60;34.80;;;11.80;99.90;;;;;;5093099;28;20044;-67
2023/05/15 01:51:44;;;;;;;72.28;34.25;;;11.70;99.90;;;;;;5092641;28;20036;-67
2023/05/15 01:54:11;;;;;;;69.88;34.70;;;11.70;99.90;;;;;;5091253;28;20097;-67
2023/05/15 01:56:39;;;;;;;83.80;33.30;;;11.70;99.90;;;;;;5083603;28;20554;-70
2023/05/15 01:59:05;;;;;;;70.13;33.55;;;11.60;99.90;;;;;;5081159;22;20051;-64
2023/05/15 02:01:32;;;;;;;73.75;32.42;;;11.60;99.90;;;;;;5043756;28;20032;-64
2023/05/15 02:04:00;;;;;;;91.03;31.40;;;11.50;99.90;;;;;;5062968;28;20513;-64
2023/05/15 02:06:27;;;;;;;61.63;30.67;;;11.50;99.90;;;;;;5064669;28;20032;-64
2023/05/15 02:08:53;;;;;;;72.32;30.25;;;11.50;99.90;;;;;;5045362;28;20498;-64
2023/05/15 02:11:19;;;;;;;59.78;30.08;;;11.50;99.90;;;;;;5022690;28;20545;-64
2023/05/15 02:13:45;;;;;;;51.92;28.40;;;11.50;99.90;;;;;;5043747;28;20041;-64
2023/05/15 02:16:11;;;;;;;59.83;29.10;;;11.50;99.90;;;;;;5041530;28;20495;-64
2023/05/15 02:18:36;;;;;;;70.15;29.10;;;11.40;99.90;;;;;;5037844;28;20068;-64
2023/05/15 02:21:02;;;;;;;54.72;29.48;;;11.40;99.90;;;;;;5045154;28;20040;-64
2023/05/15 02:23:28;;;;;;;58.17;29.52;;;11.40;99.90;;;;;;5045757;28;20079;-64
2023/05/15 02:26:11;;;;;;;55.72;29.38;;;11.40;99.90;;;;;;5024835;28;20431;-64
2023/05/15 02:28:59;;;;;;;57.55;28.95;;;11.40;99.90;;;;;;5031610;28;20471;-64
2023/05/15 02:31:39;;;;;;;86.55;31.73;;;11.40;99.90;;;;;;5047194;28;20049;-64
2023/05/15 02:34:24;;;;;;;54.00;31.17;;;11.40;99.90;;;;;;5025354;28;20534;-64
2023/05/15 02:36:51;;;;;;;55.45;29.38;;;11.40;99.90;;;;;;5042523;28;20491;-64
2023/05/15 02:39:18;;;;;;;76.30;28.95;;;11.40;99.90;;;;;;5043330;28;20454;-64
2023/05/15 02:41:46;;;;;;;79.18;29.15;;;11.40;99.90;;;;;;5045559;28;20044;-64
2023/05/15 02:44:13;;;;;;;73.28;29.63;;;11.40;99.90;;;;;;5044315;28;20084;-64
2023/05/15 02:46:40;;;;;;;57.90;32.97;;;11.30;99.90;;;;;;5050493;28;20041;-64
2023/05/15 02:49:06;;;;;;;57.35;31.67;;;11.30;99.90;;;;;;5031265;28;20052;-64
2023/05/15 02:51:32;;;;;;;63.35;29.73;;;11.30;99.90;;;;;;5031737;28;20124;-64
2023/05/15 02:54:00;;;;;;;66.47;31.02;;;11.40;99.90;;;;;;5043980;28;20119;-64
2023/05/15 02:56:26;;;;;;;81.90;30.05;;;11.40;99.90;;;;;;5033663;28;20506;-64
2023/05/15 02:58:52;;;;;;;61.55;28.70;;;11.40;99.90;;;;;;5031854;28;20044;-64
2023/05/15 03:01:17;;;;;;;89.20;29.55;;;11.40;99.90;;;;;;5050850;28;20041;-64
2023/05/15 03:03:43;;;;;;;77.85;30.45;;;11.40;99.90;;;;;;5049001;28;20036;-64
2023/05/15 03:06:08;;;;;;;97.07;30.80;;;11.40;99.90;;;;;;5025430;28;20466;-64
2023/05/15 03:08:34;;;;;;;65.53;30.15;;;11.30;99.90;;;;;;5016192;28;20116;-64
2023/05/15 03:10:59;;;;;;;64.13;30.80;;;11.30;99.90;;;;;;5051395;28;20040;-64
2023/05/15 03:13:25;;;;;;;67.40;32.50;;;11.30;99.90;;;;;;5044618;28;20411;-64
2023/05/15 03:15:51;;;;;;;61.53;30.20;;;11.30;99.90;;;;;;5046580;28;20426;-64
2023/05/15 03:18:17;;;;;;;67.28;31.55;;;11.40;99.90;;;;;;5023609;28;20045;-64
2023/05/15 03:20:43;;;;;;;100.15;30.70;;;11.40;99.90;;;;;;5041988;28;20041;-64
2023/05/15 03:23:08;;;;;;;65.45;29.92;;;11.50;99.90;;;;;;5047268;28;20490;-64
2023/05/15 03:25:34;;;;;;;73.05;29.83;;;11.40;99.90;;;;;;5042082;28;20112;-64
2023/05/15 03:28:00;;;;;;;125.68;30.65;;;11.40;99.90;;;;;;5021386;28;20033;-64
2023/05/15 03:30:25;;;;;;;101.43;29.85;;;11.30;99.90;;;;;;5031462;28;20037;-64
2023/05/15 03:32:51;;;;;;;82.90;30.63;;;11.30;99.90;;;;;;5030879;28;20037;-64
2023/05/15 03:35:16;;;;;;;79.40;30.40;;;11.30;99.90;;;;;;5021123;28;20033;-64
2023/05/15 03:37:42;;;;;;;102.82;29.85;;;11.30;99.90;;;;;;5031476;28;20069;-64
2023/05/15 03:40:08;;;;;;;88.75;30.90;;;11.40;99.90;;;;;;5031262;28;20376;-64
2023/05/15 03:42:33;;;;;;;104.25;29.33;;;11.30;99.90;;;;;;5031127;28;20057;-64
2023/05/15 03:44:59;;;;;;;84.40;29.45;;;11.30;99.90;;;;;;5038150;28;20043;-64
2023/05/15 03:47:25;;;;;;;81.57;29.20;;;11.20;99.90;;;;;;5042703;28;20041;-64
2023/05/15 03:49:50;;;;;;;92.13;30.17;;;11.20;99.90;;;;;;5040618;28;20037;-64
2023/05/15 03:52:16;;;;;;;78.75;29.42;;;11.20;99.90;;;;;;5047559;28;20136;-63
2023/05/15 03:54:41;;;;;;;91.47;29.83;;;11.20;99.90;;;;;;5049386;28;20037;-63
2023/05/15 03:57:07;;;;;;;107.47;29.92;;;11.20;99.90;;;;;;5030942;28;20038;-63
2023/05/15 03:59:33;;;;;;;109.40;29.00;;;11.20;99.90;;;;;;5039930;28;20040;-63
2023/05/15 04:01:58;;;;;;;101.38;29.88;;;11.10;99.90;;;;;;5037873;28;20057;-63
2023/05/15 04:04:24;;;;;;;91.40;31.60;;;11.10;99.90;;;;;;5041755;28;20112;-63
2023/05/15 04:06:50;;;;;;;76.75;28.85;;;11.10;99.90;;;;;;5052033;28;20052;-63
2023/05/15 04:09:16;;;;;;;77.45;28.70;;;11.00;99.90;;;;;;5045104;28;20086;-63
2023/05/15 04:11:41;;;;;;;71.65;29.10;;;11.00;99.90;;;;;;5040800;28;20041;-63
2023/05/15 04:14:07;;;;;;;64.18;30.73;;;11.00;99.90;;;;;;5026783;28;20073;-63
2023/05/15 04:16:33;;;;;;;94.50;31.63;;;11.00;99.90;;;;;;5044845;28;20041;-63
2023/05/15 04:18:58;;;;;;;67.80;32.28;;;11.00;99.90;;;;;;5023014;28;20037;-63
2023/05/15 04:21:24;;;;;;;75.65;32.55;;;11.10;99.90;;;;;;5049374;28;20029;-63
2023/05/15 04:23:50;;;;;;;78.93;31.98;;;11.10;99.90;;;;;;5033226;28;20033;-63
2023/05/15 04:26:15;;;;;;;95.13;32.63;;;11.10;99.90;;;;;;5022730;28;20767;-63
2023/05/15 04:28:41;;;;;;;76.07;32.00;;;11.10;99.90;;;;;;5045664;28;20049;-63
2023/05/15 04:31:06;;;;;;;84.25;34.97;;;11.10;99.90;;;;;;5051936;28;20415;-63
2023/05/15 04:33:32;;;;;;;73.03;32.63;;;11.00;99.90;;;;;;5050070;28;20403;-63
2023/05/15 04:35:58;;;;;;;70.25;33.67;;;11.00;99.90;;;;;;5047800;28;20507;-63
2023/05/15 04:38:23;;;;;;;59.47;32.63;;;11.00;99.90;;;;;;5053281;28;20041;-63
2023/05/15 04:40:50;;;;;;;65.45;32.72;;;11.00;99.90;;;;;;5048847;28;20041;-63
2023/05/15 04:43:15;;;;;;;68.78;32.05;;;11.00;99.90;;;;;;5037638;28;20131;-62
2023/05/15 04:45:41;;;;;;;59.95;31.00;;;10.90;99.90;;;;;;5044900;28;20462;-63
2023/05/15 04:48:06;;;;;;;58.38;30.48;;;10.90;99.90;;;;;;5033305;28;20049;-62
2023/05/15 04:50:32;;;;;;;54.90;30.20;;;10.90;99.90;;;;;;5040204;28;20449;-63
2023/05/15 04:52:58;;;;;;;58.97;29.40;;;10.90;99.90;;;;;;5049096;28;20041;-62
2023/05/15 04:55:23;;;;;;;67.53;29.67;;;10.80;99.90;;;;;;5049248;28;20032;-62
2023/05/15 04:57:50;;;;;;;71.43;31.02;;;10.80;99.90;;;;;;5051060;28;20067;-62
2023/05/15 05:00:15;;;;;;;58.97;30.85;;;10.80;99.90;;;;;;5048488;28;20052;-63
2023/05/15 05:02:44;;;;;;;63.15;30.85;;;10.80;99.90;;;;;;5050981;28;20395;-63
2023/05/15 05:05:10;;;;;;;56.35;30.95;;;10.70;99.90;;;;;;5051305;28;20037;-62
2023/05/15 05:07:35;;;;;;;64.13;31.20;;;10.70;99.90;;;;;;5043679;28;20049;-63
2023/05/15 05:10:03;;;;;;;58.85;30.13;;;10.80;99.90;;;;;;5046707;28;20044;-63
2023/05/15 05:12:28;;;;;;;56.42;29.40;;;10.80;99.90;;;;;;5051007;28;20044;-63
2023/05/15 05:14:55;;;;;;;55.15;30.10;;;10.70;99.90;;;;;;5045319;28;20097;-62
2023/05/15 05:17:21;;;;;;;54.55;29.65;;;10.80;99.90;;;;;;5050581;28;20473;-63
2023/05/15 05:19:46;;;;;;;51.13;28.23;;;10.70;99.90;;;;;;5016340;28;20110;-62
2023/05/15 05:22:12;;;;;;;54.78;29.63;;;10.70;99.90;;;;;;5046689;28;20398;-63
2023/05/15 05:24:37;;;;;;;54.90;30.02;;;10.60;99.90;;;;;;5045113;28;20059;-62
2023/05/15 05:27:03;;;;;;;57.45;29.33;;;10.60;99.90;;;;;;5049263;28;20064;-62
2023/05/15 05:29:29;;;;;;;59.78;30.80;;;10.60;99.90;;;;;;5050648;28;20047;-63
2023/05/15 05:31:55;;;;;;;64.85;30.98;;;10.60;99.90;;;;;;5044504;28;20052;-63
2023/05/15 05:34:21;;;;;;;63.83;32.60;;;10.60;99.90;;;;;;5032875;28;20041;-63
2023/05/15 05:36:47;;;;;;;66.65;32.25;;;10.70;99.90;;;;;;5048222;28;20068;-63
2023/05/15 05:39:15;;;;;;;62.10;31.40;;;10.70;99.90;;;;;;5047567;28;20114;-63
2023/05/15 05:41:41;;;;;;;63.08;31.63;;;10.70;99.90;;;;;;5051153;28;20043;-63
2023/05/15 05:44:07;;;;;;;60.22;31.98;;;10.80;99.90;;;;;;5044853;28;20041;-63
2023/05/15 05:46:32;;;;;;;61.15;31.23;;;10.70;99.90;;;;;;5034390;28;20456;-62
2023/05/15 05:48:58;;;;;;;54.63;29.58;;;10.80;99.90;;;;;;5039144;28;20042;-63
2023/05/15 05:51:24;;;;;;;64.22;32.78;;;10.80;99.90;;;;;;5014508;28;20033;-63
2023/05/15 05:53:49;;;;;;;64.57;33.95;;;10.80;99.90;;;;;;5018596;28;20048;-63
2023/05/15 05:56:15;;;;;;;63.03;32.38;;;10.80;99.90;;;;;;5048601;28;20410;-63
2023/05/15 05:58:40;;;;;;;69.55;33.83;;;10.80;99.90;;;;;;5049500;28;20041;-63
2023/05/15 06:01:06;;;;;;;64.40;33.33;;;10.90;99.90;;;;;;5031873;28;20041;-63
2023/05/15 06:03:33;;;;;;;60.35;32.00;;;10.80;99.90;;;;;;5042161;28;20418;-62
2023/05/15 06:05:58;;;;;;;60.95;31.23;;;10.90;99.90;;;;;;5049847;28;20079;-63
2023/05/15 06:08:24;;;;;;;58.35;31.20;;;10.80;99.90;;;;;;5039232;28;20073;-63
2023/05/15 06:10:49;;;;;;;63.40;31.27;;;10.80;99.90;;;;;;5049665;28;20037;-63
2023/05/15 06:13:15;;;;;;;56.83;29.90;;;10.80;99.90;;;;;;5037660;28;20553;-63
2023/05/15 06:15:42;;;;;;;53.25;29.40;;;10.80;99.90;;;;;;5038263;28;20399;-63
2023/05/15 06:18:07;;;;;;;52.53;27.58;;;10.80;99.90;;;;;;5051864;28;20048;-63
2023/05/15 06:20:33;;;;;;;48.83;27.85;;;10.70;99.90;;;;;;5029225;28;20045;-63
2023/05/15 06:22:58;;;;;;;51.60;28.15;;;10.70;99.90;;;;;;5031647;28;20037;-63
2023/05/15 06:25:24;;;;;;;55.75;29.55;;;10.70;99.90;;;;;;5031869;28;20037;-62
2023/05/15 06:27:50;;;;;;;52.17;29.10;;;10.70;99.90;;;;;;5043578;28;20033;-63
2023/05/15 06:30:15;;;;;;;56.38;28.38;;;10.70;99.90;;;;;;5044459;28;20413;-63
2023/05/15 06:32:41;;;;;;;52.72;29.00;;;10.70;99.90;;;;;;5049348;28;20502;-62
2023/05/15 06:35:08;;;;;;;51.63;28.42;;;10.70;99.90;;;;;;5042701;28;20041;-62
2023/05/15 06:37:35;;;;;;;52.05;27.92;;;10.80;99.90;;;;;;5040430;28;20037;-62
2023/05/15 06:40:00;;;;;;;52.67;28.80;;;10.80;99.90;;;;;;5021267;28;20044;-62
2023/05/15 06:42:26;;;;;;;49.53;28.45;;;11.00;99.90;;;;;;5039068;28;20042;-62
2023/05/15 06:44:51;;;;;;;46.80;26.70;;;11.00;99.90;;;;;;5042979;28;20064;-62
2023/05/15 06:47:17;;;;;;;51.55;28.92;;;11.00;99.90;;;;;;5040215;28;20047;-63
2023/05/15 06:49:42;;;;;;;45.63;27.40;;;11.10;99.90;;;;;;5040127;28;20593;-62
2023/05/15 06:52:08;;;;;;;50.17;26.98;;;11.20;99.90;;;;;;5048615;28;20517;-62
2023/05/15 06:54:34;;;;;;;46.25;26.13;;;11.20;99.90;;;;;;5045596;28;20075;-62
2023/05/15 06:56:59;;;;;;;46.92;27.75;;;11.40;99.90;;;;;;5047894;28;20065;-64
2023/05/15 06:59:25;;;;;;;50.53;27.67;;;11.50;99.90;;;;;;5041678;28;20033;-64
2023/05/15 07:01:50;;;;;;;50.53;27.80;;;11.60;99.90;;;;;;5032862;28;20466;-65
2023/05/15 07:04:16;;;;;;;50.20;26.67;;;11.80;99.90;;;;;;5025314;28;20036;-65
2023/05/15 07:06:42;;;;;;;46.92;27.20;;;11.90;99.90;;;;;;5047202;28;20262;-65
2023/05/15 07:09:08;;;;;;;43.22;24.60;;;12.00;99.90;;;;;;5049837;28;20087;-65
2023/05/15 07:11:36;;;;;;;39.45;23.42;;;12.20;99.90;;;;;;5024369;28;20041;-65
2023/05/15 07:14:02;;;;;;;37.83;24.52;;;12.50;99.90;;;;;;5031914;28;20029;-65
2023/05/15 07:16:28;;;;;;;37.00;24.08;;;12.70;99.90;;;;;;5013403;28;20041;-65
2023/05/15 07:18:54;;;;;;;35.60;22.83;;;12.80;99.90;;;;;;5029114;28;20460;-65
2023/05/15 07:21:19;;;;;;;41.30;23.67;;;13.00;99.90;;;;;;5041612;28;20033;-66
2023/05/15 07:23:45;;;;;;;38.15;22.42;;;13.20;99.90;;;;;;5041597;28;20041;-66
2023/05/15 07:26:13;;;;;;;38.28;23.80;;;13.20;99.90;;;;;;5042823;28;20074;-65
2023/05/15 07:28:38;;;;;;;38.30;23.33;;;13.30;99.90;;;;;;5033929;28;20041;-65
2023/05/15 07:31:04;;;;;;;35.83;23.02;;;13.40;99.90;;;;;;5045940;28;20045;-65
2023/05/15 07:33:30;;;;;;;37.95;23.23;;;13.60;99.90;;;;;;5051468;28;20032;-65
2023/05/15 07:35:55;;;;;;;30.80;21.23;;;13.80;99.90;;;;;;5047379;28;20479;-65
2023/05/15 07:38:21;;;;;;;31.13;20.80;;;13.90;99.90;;;;;;5026948;28;20496;-65
2023/05/15 07:40:46;;;;;;;29.33;20.30;;;14.10;99.90;;;;;;5033747;28;20367;-65
2023/05/15 07:43:12;;;;;;;31.50;19.75;;;14.20;99.90;;;;;;5035309;28;20423;-65
2023/05/15 07:45:38;;;;;;;29.15;19.00;;;14.30;99.90;;;;;;5033376;28;20124;-65
2023/05/15 07:48:17;;;;;;;29.05;20.13;;;14.30;99.90;;;;;;5033247;28;20552;-65
2023/05/15 07:50:47;;;;;;;30.10;19.02;;;14.50;99.90;;;;;;5052102;28;20037;-65
2023/05/15 07:53:15;;;;;;;25.17;18.60;;;14.60;99.90;;;;;;5054444;28;20045;-65
2023/05/15 07:55:41;;;;;;;31.73;18.98;;;14.60;99.90;;;;;;5052858;28;20091;-65
2023/05/15 07:58:07;;;;;;;26.15;18.35;;;14.70;99.90;;;;;;5076926;22;20040;-64
2023/05/15 08:00:32;;;;;;;27.40;18.83;;;14.90;99.90;;;;;;5094474;28;20115;-64
2023/05/15 08:02:58;;;;;;;28.67;19.17;;;15.00;99.90;;;;;;5072038;28;20128;-64
2023/05/15 08:05:24;;;;;;;26.75;18.52;;;15.20;99.90;;;;;;5089707;28;20047;-65
2023/05/15 08:07:50;;;;;;;24.73;18.42;;;15.20;99.90;;;;;;5094238;28;20058;-64
2023/05/15 08:10:16;;;;;;;27.05;18.63;;;15.40;99.90;;;;;;5095018;28;20470;-64
2023/05/15 08:12:45;;;;;;;21.95;17.23;;;15.50;99.90;;;;;;5094175;28;20127;-64
2023/05/15 08:15:11;;;;;;;25.90;17.95;;;15.70;99.90;;;;;;5094792;28;20123;-64
2023/05/15 08:17:37;;;;;;;28.38;17.33;;;15.80;99.90;;;;;;5085074;28;20040;-64
2023/05/15 08:20:03;;;;;;;22.27;16.73;;;15.90;99.90;;;;;;5067973;28;20117;-64
2023/05/15 08:22:29;;;;;;;22.20;16.55;;;15.90;99.90;;;;;;5068138;28;20040;-64
2023/05/15 08:24:55;;;;;;;22.33;17.08;;;15.90;99.90;;;;;;5074396;28;20412;-64
2023/05/15 08:27:21;;;;;;;26.85;18.38;;;15.80;99.90;;;;;;5055816;28;20074;-64
2023/05/15 08:29:46;;;;;;;27.83;17.48;;;15.80;99.90;;;;;;5056182;28;20079;-64
2023/05/15 08:32:12;;;;;;;22.52;15.98;;;15.90;99.90;;;;;;5073503;28;20045;-64
2023/05/15 08:34:37;;;;;;;24.33;15.82;;;16.10;99.90;;;;;;5072254;28;20391;-64
2023/05/15 08:37:05;;;;;;;26.00;16.65;;;16.20;99.90;;;;;;5081444;28;20045;-64
2023/05/15 08:39:30;;;;;;;22.23;15.27;;;16.30;99.90;;;;;;5055805;28;20490;-64
2023/05/15 08:42:02;;;;;;;24.98;15.00;;;16.40;99.90;;;;;;5055783;28;20048;-64
2023/05/15 08:44:28;;;;;;;22.92;16.40;;;16.50;99.90;;;;;;5073984;28;20036;-64
2023/05/15 08:46:54;;;;;;;22.60;15.32;;;16.70;99.90;;;;;;5073940;28;20085;-65
2023/05/15 08:49:36;;;;;;;21.75;14.95;;;16.70;99.90;;;;;;5073481;28;20040;-65
2023/05/15 08:52:03;;;;;;;19.67;15.38;;;16.70;99.90;;;;;;5080644;28;20111;-64
2023/05/15 08:54:28;;;;;;;20.10;14.40;;;16.70;99.90;;;;;;5089605;28;20052;-64
2023/05/15 08:56:54;;;;;;;20.45;14.38;;;16.70;99.90;;;;;;5093925;28;20063;-64
2023/05/15 08:59:20;;;;;;;21.33;15.10;;;16.60;99.90;;;;;;5093288;28;20032;-64
2023/05/15 09:01:46;;;;;;;26.38;15.70;;;16.70;99.90;;;;;;5093083;28;20130;-64
2023/05/15 09:04:12;;;;;;;19.77;15.00;;;16.90;99.90;;;;;;5094034;28;20043;-64
2023/05/15 09:06:39;;;;;;;18.98;14.38;;;17.10;99.90;;;;;;5094080;28;20402;-64
2023/05/15 09:09:05;;;;;;;18.98;14.30;;;17.20;99.90;;;;;;5081986;28;20036;-64
2023/05/15 09:11:31;;;;;;;17.83;13.75;;;17.20;99.90;;;;;;5089001;28;20040;-64
2023/05/15 09:13:58;;;;;;;24.88;14.88;;;17.20;99.90;;;;;;5093343;28;20040;-64
2023/05/15 09:16:24;;;;;;;19.60;14.35;;;17.40;99.90;;;;;;5093399;28;20448;-64
2023/05/15 09:18:51;;;;;;;16.83;13.18;;;17.60;99.90;;;;;;5093185;28;20051;-64
2023/05/15 09:21:30;;;;;;;18.73;13.45;;;17.90;99.90;;;;;;5093285;28;20115;-64
2023/05/15 09:24:17;;;;;;;23.73;15.77;;;17.90;99.90;;;;;;5055634;28;20394;-64
2023/05/15 09:27:02;;;;;;;17.05;14.43;;;18.10;99.90;;;;;;5081531;28;20040;-64
2023/05/15 09:29:32;;;;;;;17.63;14.30;;;18.10;99.90;;;;;;5093140;28;20036;-64
2023/05/15 09:32:12;;;;;;;22.20;16.80;;;18.20;99.90;;;;;;5093030;28;20060;-64
2023/05/15 09:34:41;;;;;;;19.42;15.30;;;18.30;99.90;;;;;;5093421;28;20032;-64
2023/05/15 09:37:09;;;;;;;22.55;15.30;;;18.40;99.90;;;;;;5092890;28;20055;-64
2023/05/15 09:39:42;;;;;;;20.88;14.90;;;18.60;99.90;;;;;;5093097;28;20051;-64
2023/05/15 09:42:10;;;;;;;16.08;13.43;;;18.70;99.90;;;;;;5086067;28;20040;-64
2023/05/15 09:44:40;;;;;;;22.98;15.35;;;18.60;99.90;;;;;;5084334;28;20040;-65
2023/05/15 09:47:06;;;;;;;16.95;13.40;;;18.70;99.90;;;;;;5075141;28;20079;-65
2023/05/15 09:49:32;;;;;;;17.95;14.07;;;18.70;99.90;;;;;;5074794;28;20519;-64
2023/05/15 09:51:58;;;;;;;18.55;14.60;;;18.60;99.90;;;;;;5092281;28;20075;-65
2023/05/15 09:54:26;;;;;;;19.23;14.82;;;18.60;99.90;;;;;;5092621;28;20040;-64
2023/05/15 09:56:52;;;;;;;22.33;15.27;;;18.70;99.90;;;;;;5074523;28;20050;-64
2023/05/15 09:59:23;;;;;;;18.95;14.30;;;18.80;99.90;;;;;;5065136;28;20485;-64
2023/05/15 10:01:50;;;;;;;19.50;14.80;;;19.00;99.90;;;;;;5083232;28;20051;-64
2023/05/15 10:04:16;;;;;;;19.90;15.32;;;19.10;99.90;;;;;;5092161;28;20046;-64
2023/05/15 10:06:46;;;;;;;19.75;14.90;;;19.20;99.90;;;;;;5074040;28;20118;-64
2023/05/15 10:09:13;;;;;;;20.08;15.45;;;19.20;99.90;;;;;;5092448;28;20046;-64
2023/05/15 10:11:42;;;;;;;21.25;15.13;;;19.30;99.90;;;;;;5073887;28;20342;-64
2023/05/15 10:14:10;;;;;;;22.45;15.07;;;19.40;99.90;;;;;;5092515;28;20086;-64
2023/05/15 10:16:37;;;;;;;18.63;14.00;;;19.60;99.90;;;;;;5080462;28;20091;-64
2023/05/15 10:19:04;;;;;;;19.27;15.20;;;19.60;99.90;;;;;;5091851;28;20039;-64
2023/05/15 10:21:35;;;;;;;19.40;14.90;;;19.60;99.90;;;;;;5092282;28;20446;-64
2023/05/15 10:24:02;;;;;;;18.23;13.90;;;19.60;99.90;;;;;;5054015;28;20437;-64
2023/05/15 10:26:39;;;;;;;17.70;13.57;;;19.60;99.90;;;;;;5054349;28;20460;-64
2023/05/15 10:29:17;;;;;;;17.67;13.50;;;19.60;99.90;;;;;;5071574;28;20037;-65
2023/05/15 10:31:43;;;;;;;16.08;12.02;;;19.50;99.90;;;;;;5071429;28;20036;-65
2023/05/15 10:34:09;;;;;;;13.55;10.77;;;19.50;99.90;;;;;;5083380;28;20040;-64
2023/05/15 10:36:37;;;;;;;17.23;13.30;;;19.50;99.90;;;;;;5092310;28;20088;-64
2023/05/15 10:39:05;;;;;;;18.98;14.13;;;19.60;99.90;;;;;;5091888;28;20040;-64
2023/05/15 10:41:35;;;;;;;19.60;14.10;;;19.70;99.90;;;;;;5091786;28;20071;-65
2023/05/15 10:44:00;;;;;;;17.90;12.02;;;19.80;99.90;;;;;;5091569;28;20036;-64
2023/05/15 10:46:34;;;;;;;18.48;10.75;;;19.70;99.90;;;;;;5092307;28;20059;-64
2023/05/15 10:49:00;;;;;;;11.68;9.20;;;19.60;99.90;;;;;;5082279;28;20074;-65
2023/05/15 10:51:28;;;;;;;14.30;12.40;;;19.60;99.90;;;;;;5083577;28;20039;-64
2023/05/15 10:53:55;;;;;;;19.30;12.70;;;19.60;99.00;;;;;;5073351;28;20063;-64
2023/05/15 10:56:36;;;;;;;12.95;10.48;;;19.60;99.90;;;;;;5091339;28;20134;-64
2023/05/15 10:59:07;;;;;;;13.00;8.98;;;19.60;99.90;;;;;;5091183;28;20036;-64
2023/05/15 11:01:34;;;;;;;15.02;10.07;;;19.50;97.40;;;;;;5065142;28;20044;-64
2023/05/15 11:04:11;;;;;;;13.65;10.88;;;19.50;96.80;;;;;;5071779;28;20070;-64
2023/05/15 11:06:38;;;;;;;18.20;12.45;;;19.50;96.80;;;;;;5079262;28;20081;-64
2023/05/15 11:09:34;;;;;;;14.80;11.73;;;19.60;97.90;;;;;;5083215;28;20093;-64
2023/05/15 11:12:00;;;;;;;17.67;11.93;;;19.80;95.80;;;;;;5089516;28;20059;-64
2023/05/15 11:14:28;;;;;;;15.52;12.00;;;19.90;97.80;;;;;;5094012;28;20145;-64
2023/05/15 11:16:53;;;;;;;17.30;12.82;;;20.00;97.80;;;;;;5095899;28;20066;-64
2023/05/15 11:19:28;;;;;;;19.30;14.02;;;20.10;98.90;;;;;;5095589;28;20553;-64
2023/05/15 11:22:14;;;;;;;18.80;13.35;;;20.10;99.90;;;;;;5092005;28;20040;-65
2023/05/15 11:25:00;;;;;;;16.70;12.57;;;20.20;99.90;;;;;;5081447;28;20478;-64
2023/05/15 11:27:41;;;;;;;19.00;14.55;;;20.30;99.90;;;;;;5095761;28;20113;-64
2023/05/15 11:30:18;;;;;;;20.80;13.23;;;20.30;99.90;;;;;;5095643;28;20047;-65
2023/05/15 11:32:53;;;;;;;15.70;12.45;;;20.20;99.90;;;;;;5095457;28;20043;-64
2023/05/15 11:35:38;;;;;;;14.88;12.55;;;19.90;99.90;;;;;;5095405;28;20070;-64
2023/05/15 11:38:24;;;;;;;14.07;11.85;;;19.90;99.90;;;;;;5089428;28;20103;-64
2023/05/15 11:40:51;;;;;;;17.35;13.93;;;20.10;99.90;;;;;;5073280;28;20501;-64
2023/05/15 11:43:29;;;;;;;15.93;12.70;;;20.20;99.90;;;;;;5080639;28;20100;-65
2023/05/15 11:46:07;;;;;;;18.02;13.77;;;20.30;99.90;;;;;;5095253;28;20551;-65
2023/05/15 11:48:43;;;;;;;21.63;15.55;;;20.30;99.90;;;;;;5094781;28;20048;-64
2023/05/15 11:51:29;;;;;;;19.80;14.52;;;20.30;99.90;;;;;;5094589;28;20089;-64
2023/05/15 11:53:56;;;;;;;20.88;14.82;;;20.20;99.90;;;;;;5089327;28;20044;-64
2023/05/15 11:56:27;;;;;;;15.65;13.02;;;20.10;99.90;;;;;;5086397;28;20044;-64
2023/05/15 11:58:57;;;;;;;17.38;13.48;;;20.10;99.90;;;;;;5076513;28;20508;-64
2023/05/15 12:01:23;;;;;;;19.42;14.70;;;20.10;99.90;;;;;;5087879;28;20041;-64
2023/05/15 12:03:50;;;;;;;18.48;14.13;;;20.20;99.90;;;;;;5074677;28;20048;-64
2023/05/15 12:06:16;;;;;;;19.90;15.60;;;20.10;99.90;;;;;;5074354;28;20493;-64
2023/05/15 12:08:42;;;;;;;20.15;15.63;;;19.90;99.90;;;;;;5056841;28;20147;-64
2023/05/15 12:11:09;;;;;;;18.52;15.20;;;19.90;99.90;;;;;;5059161;28;20128;-64
2023/05/15 12:13:35;;;;;;;17.77;14.52;;;19.90;99.90;;;;;;5067941;28;20086;-64
2023/05/15 12:16:02;;;;;;;19.50;14.60;;;19.90;99.90;;;;;;5077754;28;20036;-64
2023/05/15 12:18:29;;;;;;;18.13;13.30;;;19.70;99.90;;;;;;5094611;28;20109;-64
2023/05/15 12:20:55;;;;;;;16.58;12.98;;;19.60;99.90;;;;;;5076305;28;20179;-64
2023/05/15 12:23:22;;;;;;;18.73;13.27;;;19.50;99.90;;;;;;5076526;28;20115;-64
2023/05/15 12:25:53;;;;;;;13.90;12.20;;;19.50;99.90;;;;;;5075721;28;20043;-64
2023/05/15 12:28:19;;;;;;;;;;;19.60;99.90;;;;;;5089876;28;20040;-64
2023/05/15 12:30:46;;;;;;;13.18;9.73;;;19.80;99.90;;;;;;5085379;28;19923;-65
2023/05/15 12:33:12;;;;;;;12.60;9.23;;;20.00;99.90;;;;;;5094660;28;20101;-64